Time;durP1;ratioP1;P1;durP2;ratioP2;P2;SDS_P1;SDS_P2;PMS_P1;PMS_P2;Temp;Humidity;BMP_temperature;BMP_pressure;BME280_temperature;BME280_humidity;BME280_pressure;Samples;Min_cycle;Max_cycle;Signal;HPM_P1;HPM_P2
2023/03/28 00:01:01;;;;;;;28.95;3.38;;;0.50;99.90;;;;;;5079322;28;20155;-61
2023/03/28 00:03:28;;;;;;;22.85;2.30;;;0.50;99.90;;;;;;5079132;28;20767;-62
2023/03/28 00:06:01;;;;;;;12.38;2.42;;;0.50;99.90;;;;;;5080614;28;20068;-60
2023/03/28 00:08:27;;;;;;;13.35;1.95;;;0.50;99.90;;;;;;5080217;28;20547;-62
2023/03/28 00:11:03;;;;;;;7.30;1.83;;;0.60;99.90;;;;;;5081103;28;20051;-63
2023/03/28 00:13:29;;;;;;;25.48;2.97;;;0.60;99.90;;;;;;5081106;28;20105;-54
2023/03/28 00:16:00;;;;;;;14.18;2.42;;;0.50;99.90;;;;;;5079348;28;20056;-60
2023/03/28 00:18:26;;;;;;;16.85;1.98;;;0.50;99.90;;;;;;5065914;28;20051;-61
2023/03/28 00:20:52;;;;;;;11.32;1.98;;;0.50;99.90;;;;;;5060553;28;20523;-56
2023/03/28 00:23:18;;;;;;;19.02;2.72;;;0.40;99.90;;;;;;5066553;28;20032;-59
2023/03/28 00:25:43;;;;;;;12.73;2.25;;;0.40;99.90;;;;;;5067848;28;20032;-59
2023/03/28 00:28:09;;;;;;;14.80;2.33;;;0.40;99.90;;;;;;5065181;28;20108;-61
2023/03/28 00:30:35;;;;;;;11.98;2.42;;;0.40;99.90;;;;;;5065985;28;20032;-60
2023/03/28 00:33:03;;;;;;;16.48;2.00;;;0.40;99.90;;;;;;5067040;28;20037;-62
2023/03/28 00:35:29;;;;;;;14.38;2.08;;;0.30;99.90;;;;;;5067662;28;20131;-62
2023/03/28 00:37:57;;;;;;;9.73;2.33;;;0.30;99.90;;;;;;5066931;28;20563;-61
2023/03/28 00:40:29;;;;;;;10.63;1.80;;;0.30;99.90;;;;;;5067045;28;20040;-60
2023/03/28 00:42:55;;;;;;;13.45;2.25;;;0.30;99.90;;;;;;5067464;28;20047;-61
2023/03/28 00:45:21;;;;;;;17.10;2.30;;;0.40;99.90;;;;;;5065591;28;20074;-58
2023/03/28 00:48:07;;;;;;;16.30;2.58;;;0.40;99.90;;;;;;5066669;28;20087;-59
2023/03/28 00:50:39;;;;;;;16.17;1.98;;;0.40;99.90;;;;;;5064970;28;20033;-60
2023/03/28 00:53:20;;;;;;;14.60;2.60;;;0.40;99.90;;;;;;5067027;28;20044;-62
2023/03/28 00:55:48;;;;;;;22.25;2.78;;;0.40;99.90;;;;;;5064787;28;20461;-59
2023/03/28 00:58:22;;;;;;;14.75;2.05;;;0.40;99.90;;;;;;5064925;28;20040;-62
2023/03/28 01:00:49;;;;;;;14.13;2.42;;;0.40;99.90;;;;;;5066031;28;20566;-59
2023/03/28 01:03:21;;;;;;;17.52;3.53;;;0.40;99.90;;;;;;5066883;28;20783;-62
2023/03/28 01:05:47;;;;;;;15.13;2.28;;;0.50;99.90;;;;;;5066130;28;20567;-59
2023/03/28 01:08:16;;;;;;;12.07;2.10;;;0.40;99.90;;;;;;5066405;28;20051;-62
2023/03/28 01:10:43;;;;;;;17.55;3.50;;;0.40;99.90;;;;;;5066924;28;20059;-61
2023/03/28 01:13:11;;;;;;;23.33;3.00;;;0.50;99.90;;;;;;5066715;28;20489;-63
2023/03/28 01:15:37;;;;;;;11.10;2.10;;;0.50;99.90;;;;;;5063647;28;20110;-63
2023/03/28 01:18:09;;;;;;;15.38;2.75;;;0.50;99.90;;;;;;5063658;28;20136;-61
2023/03/28 01:20:48;;;;;;;20.38;2.58;;;0.40;99.90;;;;;;5062212;28;20131;-63
2023/03/28 01:23:43;;;;;;;13.55;2.80;;;0.40;99.90;;;;;;5063768;28;20041;-61
2023/03/28 01:26:27;;;;;;;15.10;2.47;;;0.40;99.90;;;;;;5063341;28;20097;-60
2023/03/28 01:29:11;;;;;;;6.50;1.80;;;0.40;99.90;;;;;;5065726;28;20040;-63
2023/03/28 01:32:02;;;;;;;16.58;2.28;;;0.40;99.90;;;;;;5058267;28;20036;-61
2023/03/28 01:34:52;;;;;;;13.02;2.80;;;0.30;99.90;;;;;;5065982;28;20041;-61
2023/03/28 01:37:33;;;;;;;17.63;2.05;;;0.30;99.90;;;;;;5065541;28;20048;-58
2023/03/28 01:40:05;;;;;;;13.82;2.50;;;0.30;99.90;;;;;;5062197;28;20102;-61
2023/03/28 01:42:52;;;;;;;15.45;2.55;;;0.30;99.90;;;;;;5065426;28;20075;-59
2023/03/28 01:45:41;;;;;;;22.35;2.22;;;0.20;99.90;;;;;;5063274;28;20050;-62
2023/03/28 01:48:16;;;;;;;25.73;3.40;;;0.30;99.90;;;;;;5065260;28;20040;-63
2023/03/28 01:50:59;;;;;;;24.05;2.92;;;0.20;99.90;;;;;;5063719;28;20036;-62
2023/03/28 01:54:12;;;;;;;19.05;3.05;;;0.20;99.90;;;;;;5066482;28;20052;-63
2023/03/28 01:57:00;;;;;;;22.65;3.25;;;0.20;99.90;;;;;;5060259;28;20544;-63
2023/03/28 01:59:28;;;;;;;23.38;3.92;;;0.20;99.90;;;;;;5059769;28;20056;-63
2023/03/28 02:02:12;;;;;;;16.85;3.30;;;0.20;99.90;;;;;;5065103;28;20116;-62
2023/03/28 02:04:44;;;;;;;20.90;3.92;;;0.20;99.90;;;;;;5063298;28;20036;-62
2023/03/28 02:07:11;;;;;;;19.63;2.80;;;0.10;99.90;;;;;;5065236;28;20556;-61
2023/03/28 02:09:41;;;;;;;16.65;2.97;;;0.00;99.90;;;;;;5065200;28;20044;-63
2023/03/28 02:12:16;;;;;;;30.77;4.20;;;-0.10;99.90;;;;;;5066392;28;20076;-62
2023/03/28 02:14:43;;;;;;;26.08;3.40;;;-0.10;99.90;;;;;;5066421;28;20044;-63
2023/03/28 02:17:14;;;;;;;10.70;2.47;;;-0.10;99.90;;;;;;5062955;28;20048;-63
2023/03/28 02:19:45;;;;;;;17.85;2.95;;;-0.10;99.90;;;;;;5063624;28;20063;-65
2023/03/28 02:22:23;;;;;;;14.32;2.28;;;-0.20;99.90;;;;;;5066308;28;20041;-63
2023/03/28 02:24:50;;;;;;;13.35;3.08;;;-0.20;99.90;;;;;;5065412;28;20044;-62
2023/03/28 02:27:21;;;;;;;15.32;3.42;;;-0.20;99.90;;;;;;5065371;28;20131;-63
2023/03/28 02:29:53;;;;;;;19.08;3.25;;;-0.20;99.90;;;;;;5066115;28;20138;-62
2023/03/28 02:32:20;;;;;;;16.13;2.53;;;-0.30;99.90;;;;;;5064044;28;20103;-63
2023/03/28 02:34:47;;;;;;;19.35;2.88;;;-0.30;99.90;;;;;;5066569;28;20098;-63
2023/03/28 02:37:47;;;;;;;18.38;2.92;;;-0.30;99.90;;;;;;5063323;28;20040;-60
2023/03/28 02:40:32;;;;;;;17.58;2.88;;;-0.30;99.90;;;;;;5062334;28;20578;-63
2023/03/28 02:43:01;;;;;;;26.73;3.40;;;-0.30;99.90;;;;;;5065510;28;20446;-62
2023/03/28 02:45:38;;;;;;;27.20;4.03;;;-0.30;99.90;;;;;;5065170;28;20036;-62
2023/03/28 02:48:37;;;;;;;24.80;3.33;;;-0.40;99.90;;;;;;5065127;28;20089;-62
2023/03/28 02:51:22;;;;;;;16.77;2.60;;;-0.40;99.90;;;;;;5059394;28;20115;-60
2023/03/28 02:54:14;;;;;;;25.23;2.42;;;-0.50;99.90;;;;;;5065011;28;20573;-60
2023/03/28 02:57:00;;;;;;;17.95;2.38;;;-0.50;99.90;;;;;;5035299;28;20653;-63
2023/03/28 02:59:32;;;;;;;28.67;3.50;;;-0.50;99.90;;;;;;5062758;28;20043;-61
2023/03/28 03:01:59;;;;;;;20.65;3.22;;;-0.50;99.90;;;;;;5063650;28;20032;-61
2023/03/28 03:04:25;;;;;;;14.60;2.67;;;-0.60;99.90;;;;;;5064813;28;20052;-62
2023/03/28 03:06:51;;;;;;;15.95;2.38;;;;;;;;;;5064661;28;20052;-61
2023/03/28 03:09:17;;;;;;;14.50;2.72;;;;;;;;;;5065223;28;20032;-62
2023/03/28 03:11:43;;;;;;;16.90;3.28;;;;;;;;;;5064767;28;20036;-60
2023/03/28 03:14:10;;;;;;;19.42;3.53;;;;;;;;;;5063393;28;20036;-59
2023/03/28 03:16:37;;;;;;;24.30;3.30;;;;;;;;;;5064827;28;20043;-61
2023/03/28 03:19:03;;;;;;;22.65;2.78;;;;;;;;;;5062844;28;20044;-63
2023/03/28 03:21:29;;;;;;;22.98;3.20;;;;;;;;;;5060804;28;20044;-63
2023/03/28 03:23:55;;;;;;;27.42;3.38;;;;;;;;;;5062596;28;20052;-60
2023/03/28 03:26:21;;;;;;;25.60;2.92;;;;;;;;;;5063700;28;20044;-62
2023/03/28 03:28:48;;;;;;;23.65;3.72;;;;;;;;;;5064691;28;20104;-63
2023/03/28 03:31:16;;;;;;;16.90;2.90;;;;;;;;;;5063828;28;20082;-58
2023/03/28 03:33:42;;;;;;;22.33;3.08;;;;;;;;;;5064019;28;20477;-61
2023/03/28 03:36:08;;;;;;;14.45;2.35;;;;;;;;;;5064737;28;20055;-62
2023/03/28 03:38:35;;;;;;;17.15;3.60;;;;;;;;;;5062244;28;20045;-56
2023/03/28 03:41:01;;;;;;;22.42;3.78;;;;;;;;;;5059216;28;20515;-57
2023/03/28 03:43:27;;;;;;;19.75;2.75;;;;;;;;;;5064660;28;20103;-58
2023/03/28 03:45:55;;;;;;;11.20;3.45;;;;;;;;;;5064740;28;20052;-61
2023/03/28 03:48:21;;;;;;;14.57;2.75;;;;;;;;;;5063771;28;20060;-58
2023/03/28 03:50:47;;;;;;;28.38;3.42;;;;;;;;;;5064911;28;20032;-62
2023/03/28 03:53:13;;;;;;;24.65;5.25;;;;;;;;;;5066300;28;20067;-60
2023/03/28 03:55:39;;;;;;;16.25;2.88;;;;;;;;;;5068341;28;20036;-63
2023/03/28 03:58:05;;;;;;;18.10;2.47;;;;;;;;;;5069424;28;20147;-61
2023/03/28 04:00:31;;;;;;;24.45;2.72;;;;;;;;;;5067633;28;20039;-61
2023/03/28 04:02:57;;;;;;;15.65;2.95;;;;;;;;;;5068965;28;20028;-61
2023/03/28 04:05:24;;;;;;;26.25;2.63;;;;;;;;;;5066892;28;20060;-60
2023/03/28 04:07:50;;;;;;;22.35;2.88;;;;;;;;;;5066523;28;20028;-61
2023/03/28 04:10:16;;;;;;;16.35;3.90;;;;;;;;;;5067161;28;20041;-62
2023/03/28 04:12:42;;;;;;;18.98;3.17;;;;;;;;;;5067777;28;20138;-62
2023/03/28 04:15:08;;;;;;;10.98;2.70;;;;;;;;;;5068055;28;20402;-61
2023/03/28 04:17:35;;;;;;;26.60;3.67;;;;;;;;;;5067514;28;20044;-60
2023/03/28 04:20:06;;;;;;;15.02;3.05;;;;;;;;;;5066317;28;20044;-63
2023/03/28 04:22:34;;;;;;;26.10;3.33;;;;;;;;;;5068793;28;20044;-63
2023/03/28 04:25:00;;;;;;;20.00;2.92;;;;;;;;;;5068958;28;20048;-62
2023/03/28 04:27:30;;;;;;;29.35;3.83;;;;;;;;;;5066165;28;20040;-59
2023/03/28 04:29:56;;;;;;;18.38;3.60;;;;;;;;;;5065510;28;20051;-59
2023/03/28 04:32:24;;;;;;;23.30;3.72;;;;;;;;;;5064163;28;20037;-57
2023/03/28 04:34:50;;;;;;;15.95;3.08;;;;;;;;;;5068935;28;20094;-58
2023/03/28 04:37:17;;;;;;;22.02;2.97;;;;;;;;;;5065996;28;20044;-59
2023/03/28 04:39:46;;;;;;;15.55;3.72;;;;;;;;;;5067898;28;20039;-59
2023/03/28 04:42:15;;;;;;;18.38;3.30;;;;;;;;;;5065396;28;20564;-63
2023/03/28 04:44:41;;;;;;;12.90;2.70;;;;;;;;;;5068509;28;20048;-61
2023/03/28 04:47:10;;;;;;;28.52;3.95;;;;;;;;;;5065702;28;20744;-60
2023/03/28 04:49:37;;;;;;;15.43;2.70;;;;;;;;;;5061844;28;20043;-63
2023/03/28 04:52:03;;;;;;;21.38;3.08;;;;;;;;;;5067415;28;20044;-63
2023/03/28 04:54:29;;;;;;;12.30;2.38;;;;;;;;;;5067825;28;20094;-63
2023/03/28 04:56:55;;;;;;;15.68;3.20;;;;;;;;;;5064430;28;20041;-63
2023/03/28 04:59:21;;;;;;;23.13;3.60;;;;;;;;;;5063481;28;20553;-62
2023/03/28 05:01:48;;;;;;;19.17;3.00;;;;;;;;;;5058683;28;20536;-62
2023/03/28 05:04:16;;;;;;;12.23;3.70;;;;;;;;;;5068278;28;20028;-61
2023/03/28 05:06:44;;;;;;;20.33;2.45;;;;;;;;;;5066697;28;20105;-61
2023/03/28 05:09:11;;;;;;;27.48;3.53;;;;;;;;;;5065864;28;20396;-62
2023/03/28 05:11:37;;;;;;;20.35;3.25;;;;;;;;;;5061669;28;20107;-63
2023/03/28 05:14:03;;;;;;;19.45;3.33;;;;;;;;;;5067270;28;20581;-63
2023/03/28 05:16:29;;;;;;;22.58;3.95;;;;;;;;;;5066543;28;20119;-62
2023/03/28 05:18:55;;;;;;;12.90;2.35;;;;;;;;;;5065085;28;20049;-61
2023/03/28 05:21:22;;;;;;;19.73;3.22;;;;;;;;;;5065955;28;20028;-63
2023/03/28 05:23:48;;;;;;;11.50;2.60;;;;;;;;;;5066759;28;20087;-60
2023/03/28 05:26:15;;;;;;;19.95;3.08;;;;;;;;;;5066111;28;20044;-57
2023/03/28 05:28:41;;;;;;;14.73;3.53;;;;;;;;;;5063401;28;20032;-61
2023/03/28 05:31:08;;;;;;;19.73;3.30;;;;;;;;;;5064138;28;20067;-57
2023/03/28 05:33:34;;;;;;;14.27;3.47;;;;;;;;;;5057586;28;20150;-59
2023/03/28 05:36:00;;;;;;;19.75;3.28;;;;;;;;;;5061155;28;20090;-59
2023/03/28 05:38:29;;;;;;;8.20;2.78;;;;;;;;;;5059087;28;20040;-58
2023/03/28 05:40:56;;;;;;;19.73;3.10;;;;;;;;;;5063281;28;20459;-61
2023/03/28 05:43:22;;;;;;;25.20;3.45;;;;;;;;;;5062475;28;20044;-61
2023/03/28 05:45:48;;;;;;;17.77;3.28;;;;;;;;;;5060468;28;20053;-60
2023/03/28 05:48:14;;;;;;;21.63;3.40;;;;;;;;;;5062754;28;20039;-60
2023/03/28 05:50:40;;;;;;;20.40;3.58;;;;;;;;;;5066003;28;20036;-62
2023/03/28 05:53:06;;;;;;;21.48;4.22;;;;;;;;;;5063817;28;20032;-62
2023/03/28 05:55:32;;;;;;;18.67;3.75;;;;;;;;;;5066676;28;20441;-62
2023/03/28 05:57:59;;;;;;;16.98;3.55;;;;;;;;;;5064792;28;20531;-61
2023/03/28 06:00:25;;;;;;;19.88;3.60;;;;;;;;;;5061222;28;20128;-63
2023/03/28 06:02:53;;;;;;;17.90;3.08;;;;;;;;;;5064381;28;20044;-61
2023/03/28 06:05:20;;;;;;;16.33;3.17;;;;;;;;;;5065712;28;20107;-57
2023/03/28 06:07:46;;;;;;;18.70;3.08;;;;;;;;;;5065375;28;20045;-57
2023/03/28 06:10:12;;;;;;;19.90;3.22;;;;;;;;;;5066089;28;20107;-60
2023/03/28 06:12:39;;;;;;;14.55;3.25;;;;;;;;;;5057875;28;20045;-62
2023/03/28 06:15:05;;;;;;;22.02;4.00;;;;;;;;;;5066927;28;20089;-63
2023/03/28 06:17:31;;;;;;;14.50;3.15;;;;;;;;;;5063760;28;20548;-64
2023/03/28 06:19:57;;;;;;;20.92;3.38;;;;;;;;;;5059209;28;20028;-62
2023/03/28 06:22:24;;;;;;;21.00;3.83;;;;;;;;;;5063122;28;20044;-63
2023/03/28 06:24:50;;;;;;;21.98;4.43;;;;;;;;;;5065168;28;20520;-62
2023/03/28 06:27:16;;;;;;;19.15;3.78;;;;;;;;;;5065044;28;20047;-59
2023/03/28 06:29:42;;;;;;;16.60;3.40;;;;;;;;;;5062344;28;20048;-62
2023/03/28 06:32:08;;;;;;;14.95;3.17;;;;;;;;;;5060816;28;20992;-62
2023/03/28 06:34:34;;;;;;;16.60;3.45;;;;;;;;;;5065861;28;20295;-62
2023/03/28 06:37:00;;;;;;;21.30;4.30;;;;;;;;;;5065289;28;20423;-63
2023/03/28 06:39:27;;;;;;;21.30;4.05;;;;;;;;;;5063773;28;20543;-61
2023/03/28 06:41:53;;;;;;;22.38;4.55;;;;;;;;;;5065220;28;20051;-61
2023/03/28 06:44:19;;;;;;;10.98;3.05;;;;;;;;;;5064005;28;20580;-60
2023/03/28 06:46:45;;;;;;;16.50;3.03;;;;;;;;;;5061907;28;20048;-60
2023/03/28 06:49:11;;;;;;;15.70;3.33;;;;;;;;;;5064220;28;20044;-60
2023/03/28 06:51:37;;;;;;;18.23;3.45;;;;;;;;;;5060938;28;20033;-64
2023/03/28 06:54:03;;;;;;;17.27;3.83;;;;;;;;;;5064319;28;20055;-61
2023/03/28 06:56:29;;;;;;;14.10;3.70;;;;;;;;;;5064199;28;20492;-62
2023/03/28 06:58:55;;;;;;;16.98;5.10;;;;;;;;;;5061921;28;20455;-60
2023/03/28 07:01:21;;;;;;;19.20;4.00;;;;;;;;;;5060683;28;20638;-62
2023/03/28 07:03:47;;;;;;;31.60;3.67;;;;;;;;;;5065240;28;20036;-63
2023/03/28 07:06:13;;;;;;;18.67;3.65;;;;;;;;;;5064065;28;20089;-62
2023/03/28 07:08:39;;;;;;;16.50;2.75;;;;;;;;;;5063577;28;20036;-62
2023/03/28 07:11:05;;;;;;;10.82;2.78;;;;;;;;;;5064132;28;20123;-63
2023/03/28 07:13:32;;;;;;;8.40;2.58;;;;;;;;;;5061561;28;20036;-63
2023/03/28 07:16:05;;;;;;;14.60;3.13;;;;;;;;;;5063838;28;20107;-64
2023/03/28 07:18:31;;;;;;;21.10;2.90;;;;;;;;;;5062551;28;20029;-62
2023/03/28 07:20:57;;;;;;;16.55;3.58;;;;;;;;;;5064427;28;20089;-63
2023/03/28 07:23:24;;;;;;;12.63;2.42;;;;;;;;;;5061815;28;20041;-57
2023/03/28 07:25:50;;;;;;;13.07;2.50;;;;;;;;;;5064953;28;20037;-59
2023/03/28 07:28:16;;;;;;;13.43;2.95;;;;;;;;;;5066379;28;20169;-60
2023/03/28 07:30:42;;;;;;;11.02;2.80;;;;;;;;;;5068601;28;20036;-58
2023/03/28 07:33:08;;;;;;;16.60;3.47;;;;;;;;;;5068385;28;20036;-60
2023/03/28 07:35:38;;;;;;;12.57;2.67;;;;;;;;;;5067379;28;20036;-60
2023/03/28 07:38:04;;;;;;;13.23;2.42;;;;;;;;;;5066967;28;20040;-60
2023/03/28 07:40:30;;;;;;;20.48;4.60;;;;;;;;;;5065952;28;20147;-59
2023/03/28 07:42:56;;;;;;;16.13;2.65;;;;;;;;;;5066403;28;20040;-63
2023/03/28 07:45:22;;;;;;;11.57;2.33;;;;;;;;;;5062579;28;20458;-61
2023/03/28 07:47:48;;;;;;;18.88;2.90;;;;;;;;;;5057724;28;20143;-61
2023/03/28 07:50:14;;;;;;;19.80;3.25;;;;;;;;;;5061798;28;20056;-62
2023/03/28 07:52:44;;;;;;;17.58;3.55;;;;;;;;;;5060987;28;20050;-57
2023/03/28 07:55:11;;;;;;;15.50;2.45;;;;;;;;;;5065792;28;20492;-59
2023/03/28 07:57:37;;;;;;;17.35;2.75;;;;;;;;;;5067358;28;20495;-56
2023/03/28 08:00:12;;;;;;;15.30;2.67;;;;;;;;;;5065362;28;20090;-62
2023/03/28 08:02:39;;;;;;;12.50;2.45;;;;;;;;;;5057722;28;20566;-60
2023/03/28 08:05:05;;;;;;;13.70;2.35;;;;;;;;;;5069275;28;20032;-59
2023/03/28 08:07:32;;;;;;;12.38;2.50;;;;;;;;;;5066355;28;20139;-62
2023/03/28 08:09:59;;;;;;;15.60;3.58;;;;;;;;;;5064099;28;20040;-62
2023/03/28 08:12:25;;;;;;;17.13;2.80;;;;;;;;;;5066372;28;20041;-61
2023/03/28 08:14:51;;;;;;;18.60;2.97;;;;;;;;;;5069408;28;20537;-61
2023/03/28 08:17:17;;;;;;;17.00;2.92;;;;;;;;;;5067433;28;20047;-61
2023/03/28 08:19:44;;;;;;;12.88;2.55;;;;;;;;;;5068440;28;20112;-60
2023/03/28 08:22:11;;;;;;;15.73;2.88;;;;;;;;;;5064472;28;20033;-63
2023/03/28 08:24:37;;;;;;;10.98;2.60;;;;;;;;;;5066406;28;20042;-62
2023/03/28 08:27:03;;;;;;;22.58;5.45;;;;;;;;;;5067259;28;20036;-63
2023/03/28 08:29:29;;;;;;;23.15;4.60;;;;;;;;;;5067293;28;20502;-61
2023/03/28 08:31:56;;;;;;;21.75;4.40;;;;;;;;;;5065946;28;20083;-61
2023/03/28 08:34:22;;;;;;;15.65;3.13;;;;;;;;;;5068470;28;20128;-62
2023/03/28 08:36:48;;;;;;;25.77;4.32;;;;;;;;;;5064152;28;20037;-61
2023/03/28 08:39:14;;;;;;;15.18;3.15;;;;;;;;;;5061954;28;20028;-63
2023/03/28 08:41:51;;;;;;;12.93;3.03;;;;;;;;;;5066874;28;20492;-61
2023/03/28 08:44:32;;;;;;;14.07;2.28;;;;;;;;;;5066203;28;20078;-60
2023/03/28 08:47:05;;;;;;;12.77;2.20;;;;;;;;;;5060757;28;20131;-60
2023/03/28 08:49:33;;;;;;;12.38;2.28;;;;;;;;;;5065203;28;20373;-59
2023/03/28 08:52:01;;;;;;;7.18;2.03;;;;;;;;;;5066444;28;20460;-61
2023/03/28 08:54:30;;;;;;;12.20;2.55;;;;;;;;;;5065547;28;20060;-62
2023/03/28 08:56:57;;;;;;;16.98;3.15;;;;;;;;;;5066290;28;20055;-60
2023/03/28 08:59:25;;;;;;;10.60;2.40;;;;;;;;;;5059290;28;20532;-62
2023/03/28 09:01:51;;;;;;;12.63;2.67;;;;;;;;;;5057364;28;20037;-59
2023/03/28 09:04:36;;;;;;;6.78;1.77;;;;;;;;;;5061003;28;20036;-58
2023/03/28 09:07:23;;;;;;;9.10;2.75;;;;;;;;;;5064153;28;20040;-61
2023/03/28 09:10:05;;;;;;;13.73;2.30;;;;;;;;;;5065742;28;20036;-62
2023/03/28 09:12:33;;;;;;;16.63;3.05;;;;;;;;;;5067141;28;20052;-62
2023/03/28 09:15:05;;;;;;;10.18;2.28;;;;;;;;;;5068814;28;20109;-61
2023/03/28 09:17:34;;;;;;;12.68;2.60;;;;;;;;;;5064421;28;20044;-59
2023/03/28 09:20:18;;;;;;;12.35;2.63;;;;;;;;;;5057388;28;20028;-62
2023/03/28 09:22:44;;;;;;;10.88;2.58;;;;;;;;;;5061568;28;20067;-58
2023/03/28 09:25:21;;;;;;;13.27;3.38;;;;;;;;;;5066657;28;20154;-63
2023/03/28 09:27:53;;;;;;;17.17;3.00;;;;;;;;;;5060984;28;20066;-57
2023/03/28 09:30:21;;;;;;;11.52;2.80;;;;;;;;;;5064561;28;20064;-59
2023/03/28 09:32:51;;;;;;;11.13;2.25;;;;;;;;;;5066646;28;20032;-58
2023/03/28 09:35:19;;;;;;;8.85;2.17;;;;;;;;;;5063861;28;20044;-62
2023/03/28 09:37:48;;;;;;;12.20;2.05;;;;;;;;;;5065391;28;20078;-62
2023/03/28 09:40:24;;;;;;;11.38;2.33;;;;;;;;;;5061561;28;20059;-60
2023/03/28 09:42:55;;;;;;;16.08;1.98;;;;;;;;;;5059204;28;20071;-60
2023/03/28 09:45:24;;;;;;;9.25;1.67;;;;;;;;;;5066358;28;20093;-60
2023/03/28 09:47:50;;;;;;;5.95;1.52;;;;;;;;;;5064129;28;20047;-58
2023/03/28 09:50:17;;;;;;;8.23;1.77;;;;;;;;;;5061760;28;20036;-58
2023/03/28 09:52:44;;;;;;;8.32;1.77;;;;;;;;;;5061635;28;20126;-62
2023/03/28 09:55:17;;;;;;;11.40;1.88;;;;;;;;;;5062492;28;20041;-62
2023/03/28 09:58:02;;;;;;;8.20;1.50;;;;;;;;;;5056652;28;20102;-60
2023/03/28 10:00:28;;;;;;;6.60;1.52;;;;;;;;;;5064079;28;20116;-58
2023/03/28 10:02:55;;;;;;;6.43;1.63;;;;;;;;;;5066875;28;20060;-58
2023/03/28 10:05:30;;;;;;;5.93;1.33;;;;;;;;;;5065372;28;20070;-61
2023/03/28 10:07:57;;;;;;;10.98;1.58;;;;;;;;;;5064450;28;20726;-63
2023/03/28 10:10:24;;;;;;;10.68;1.90;;;;;;;;;;5066090;28;20052;-58
2023/03/28 10:12:55;;;;;;;12.30;2.30;;;;;;;;;;5065277;28;20029;-61
2023/03/28 10:15:31;;;;;;;14.40;2.50;;;;;;;;;;5066168;28;20075;-60
2023/03/28 10:17:59;;;;;;;7.53;1.40;;;;;;;;;;5055647;28;20547;-59
2023/03/28 10:20:25;;;;;;;15.20;2.17;;;;;;;;;;5061330;28;20282;-63
2023/03/28 10:22:53;;;;;;;7.07;1.98;;;;;;;;;;5065074;28;20127;-61
2023/03/28 10:25:21;;;;;;;15.32;3.90;;;;;;;;;;5065463;28;20049;-61
2023/03/28 10:27:48;;;;;;;9.80;1.83;;;;;;;;;;5064567;28;20039;-63
2023/03/28 10:30:15;;;;;;;10.90;1.83;;;;;;;;;;5059017;28;20089;-62
2023/03/28 10:32:41;;;;;;;8.20;1.83;;;;;;;;;;5063014;28;20033;-60
2023/03/28 10:35:15;;;;;;;8.85;2.10;;;;;;;;;;5062895;28;20098;-60
2023/03/28 10:37:42;;;;;;;11.00;2.47;;;;;;;;;;5060872;28;20044;-63
2023/03/28 10:40:17;;;;;;;7.28;1.85;;;;;;;;;;5062029;28;20133;-62
2023/03/28 10:42:44;;;;;;;7.72;2.08;;;;;;;;;;5057098;28;20037;-57
2023/03/28 10:45:22;;;;;;;10.13;2.45;;;;;;;;;;5062797;28;20040;-59
2023/03/28 10:47:49;;;;;;;5.88;2.33;;;;;;;;;;5064616;28;20071;-63
2023/03/28 10:50:27;;;;;;;12.07;2.55;;;;;;;;;;5061705;28;20250;-62
2023/03/28 10:53:11;;;;;;;7.57;1.92;;;;;;;;;;5060768;28;20600;-61
2023/03/28 10:55:39;;;;;;;11.10;2.00;;;;;;;;;;5060226;28;20044;-62
2023/03/28 10:58:05;;;;;;;11.15;2.70;;;;;;;;;;5062195;28;20499;-63
2023/03/28 11:00:36;;;;;;;13.85;3.28;;;;;;;;;;5066020;28;20048;-62
2023/03/28 11:03:11;;;;;;;16.92;2.67;;;;;;;;;;5065121;28;20036;-62
2023/03/28 11:05:51;;;;;;;9.00;2.53;;;;;;;;;;5062158;28;20036;-62
2023/03/28 11:08:26;;;;;;;8.07;2.20;;;;;;;;;;5063545;28;20131;-63
2023/03/28 11:11:12;;;;;;;15.57;2.55;;;;;;;;;;5065568;28;20384;-63
2023/03/28 11:13:41;;;;;;;10.93;2.33;;;;;;;;;;5057895;28;20037;-60
2023/03/28 11:16:14;;;;;;;8.07;2.40;;;;;;;;;;5059687;28;20561;-59
2023/03/28 11:18:40;;;;;;;10.63;2.35;;;;;;;;;;5063112;28;20067;-63
2023/03/28 11:21:09;;;;;;;6.53;2.30;;;;;;;;;;5061961;28;20623;-64
2023/03/28 11:23:47;;;;;;;5.88;2.03;;;;;;;;;;5062786;28;20429;-62
2023/03/28 11:26:20;;;;;;;10.18;1.98;;;;;;;;;;5058114;28;20049;-63
2023/03/28 11:28:50;;;;;;;10.45;2.58;;;;;;;;;;5063569;28;20041;-62
2023/03/28 11:31:40;;;;;;;12.70;2.55;;;;;;;;;;5063277;28;20662;-63
2023/03/28 11:34:11;;;;;;;7.70;2.22;;;;;;;;;;5057779;28;20044;-62
2023/03/28 11:36:41;;;;;;;8.48;2.05;;;;;;;;;;5057740;28;20468;-64
2023/03/28 11:39:10;;;;;;;10.13;2.20;;;;;;;;;;5063448;28;20050;-63
2023/03/28 11:41:39;;;;;;;9.05;1.73;;;;;;;;;;5063112;28;20041;-61
2023/03/28 11:44:12;;;;;;;8.32;1.85;;;;;;;;;;5062125;28;20047;-63
2023/03/28 11:46:45;;;;;;;8.25;2.17;;;;;;;;;;5056775;28;20653;-64
2023/03/28 11:49:17;;;;;;;10.07;2.67;;;;;;;;;;5061853;28;20040;-62
2023/03/28 11:51:49;;;;;;;9.15;2.47;;;;;;;;;;5058682;28;20037;-61
2023/03/28 11:54:23;;;;;;;7.68;1.63;;;;;;;;;;5064414;28;20143;-59
2023/03/28 11:57:08;;;;;;;5.55;2.20;;;;;;;;;;5065044;28;20555;-62
2023/03/28 11:59:45;;;;;;;7.20;2.58;;;;;;;;;;5060932;28;20130;-64
2023/03/28 12:02:29;;;;;;;12.15;1.98;;;;;;;;;;5060621;28;20036;-62
2023/03/28 12:04:59;;;;;;;6.13;1.70;;;;;;;;;;5064201;28;20064;-63
2023/03/28 12:07:31;;;;;;;7.75;2.30;;;;;;;;;;5063951;28;20053;-64
2023/03/28 12:10:07;;;;;;;7.07;2.00;;;;;;;;;;5064635;28;20496;-64
2023/03/28 12:12:33;;;;;;;;;;;;;;;;;;5064649;28;20036;-63
2023/03/28 12:15:06;;;;;;;5.60;1.63;;;;;;;;;;5066557;28;20444;-63
2023/03/28 12:17:52;;;;;;;9.48;1.90;;;;;;;;;;5067364;28;20535;-63
2023/03/28 12:20:26;;;;;;;15.85;2.83;;;;;;;;;;5065435;28;20119;-62
2023/03/28 12:22:56;;;;;;;7.97;2.50;;;;;;;;;;5066101;28;20044;-64
2023/03/28 12:25:30;;;;;;;8.73;2.42;;;;;;;;;;5066171;28;20032;-64
2023/03/28 12:27:56;;;;;;;7.80;2.33;;;;;;;;;;5066214;28;20047;-63
2023/03/28 12:30:31;;;;;;;6.97;2.33;;;;;;;;;;5063648;28;20063;-64
2023/03/28 12:33:19;;;;;;;6.72;2.08;;;;;;;;;;5061237;28;20098;-64
2023/03/28 12:35:51;;;;;;;8.80;2.45;;;;;;;;;;5059002;28;20732;-64
2023/03/28 12:38:23;;;;;;;7.63;2.20;;;;;;;;;;5066378;28;20048;-62
2023/03/28 12:40:49;;;;;;;7.60;2.17;;;;;;;;;;5067771;28;20036;-64
2023/03/28 12:43:15;;;;;;;;;;;;;;;;;;5067847;28;20052;-61
2023/03/28 12:45:53;;;;;;;10.23;1.97;;;;;;;;;;5068355;28;19924;-63
2023/03/28 12:48:31;;;;;;;5.68;1.73;;;;;;;;;;5066567;28;20044;-63
2023/03/28 12:51:00;;;;;;;6.22;1.92;;;;;;;;;;5067422;28;20102;-63
2023/03/28 12:53:28;;;;;;;3.42;1.40;;;;;;;;;;5066859;28;20120;-63
2023/03/28 12:55:54;;;;;;;9.77;1.85;;;;;;;;;;5067969;28;20119;-63
2023/03/28 12:58:23;;;;;;;8.32;1.73;;;;;;;;;;5066180;28;20036;-60
2023/03/28 13:00:59;;;;;;;7.78;1.88;;;;;;;;;;5065773;28;20040;-63
2023/03/28 13:03:31;;;;;;;5.13;1.95;;;;;;;;;;5065970;28;20107;-62
2023/03/28 13:06:02;;;;;;;6.72;2.03;;;;;;;;;;5066701;28;20420;-63
2023/03/28 13:08:46;;;;;;;6.07;1.83;;;;;;;;;;5063698;28;20120;-65
2023/03/28 13:11:16;;;;;;;5.28;1.80;;;;;;;;;;5063606;28;20843;-63
2023/03/28 13:14:02;;;;;;;5.82;1.85;;;;;;;;;;5067147;28;20094;-61
2023/03/28 13:16:41;;;;;;;7.40;1.60;;;;;;;;;;5066762;28;20040;-64
2023/03/28 13:19:09;;;;;;;9.63;1.92;;;;;;;;;;5066499;28;20423;-63
2023/03/28 13:21:41;;;;;;;7.32;1.80;;;;;;;;;;5062200;28;20044;-63
2023/03/28 13:24:27;;;;;;;6.88;1.50;;;;;;;;;;5066855;28;20822;-64
2023/03/28 13:26:55;;;;;;;6.05;2.00;;;;;;;;;;5060959;28;20650;-63
2023/03/28 13:29:21;;;;;;;12.55;1.80;;;;;;;;;;5065195;28;20032;-63
2023/03/28 13:31:48;;;;;;;4.05;1.58;;;;;;;;;;5060795;28;20028;-62
2023/03/28 13:34:21;;;;;;;8.48;2.25;;;;;;;;;;5067211;28;20069;-63
2023/03/28 13:36:53;;;;;;;8.05;2.15;;;;;;;;;;5065147;28;20129;-62
2023/03/28 13:39:21;;;;;;;10.73;2.20;;;;;;;;;;5066462;28;20491;-63
2023/03/28 13:41:47;;;;;;;6.82;1.80;;;;;;;;;;5066274;28;20043;-62
2023/03/28 13:44:13;;;;;;;;;;;;;;;;;;5066827;28;20036;-62
2023/03/28 13:46:44;;;;;;;6.75;2.10;;;;;;;;;;5066230;28;19975;-63
2023/03/28 13:49:13;;;;;;;6.07;1.70;;;;;;;;;;5063606;28;20040;-63
2023/03/28 13:51:52;;;;;;;13.40;1.65;;;;;;;;;;5058017;28;20512;-62
2023/03/28 13:54:19;;;;;;;7.80;1.70;;;;;;;;;;5066028;28;20066;-62
2023/03/28 13:56:47;;;;;;;9.65;2.50;;;;;;;;;;5066025;28;20044;-61
2023/03/28 13:59:15;;;;;;;7.50;1.75;;;;;;;;;;5062075;28;20496;-62
2023/03/28 14:01:46;;;;;;;7.93;1.70;;;;;;;;;;5062902;28;20044;-63
2023/03/28 14:04:17;;;;;;;7.22;1.52;;;;;;;;;;5065271;28;20037;-62
2023/03/28 14:06:43;;;;;;;5.00;1.40;;;;;;;;;;5066685;28;20071;-63
2023/03/28 14:09:09;;;;;;;;;;;;;;;;;;5066768;28;20206;-63
2023/03/28 14:11:37;;;;;;;7.55;1.45;;;;;;;;;;5066333;28;19928;-61
2023/03/28 14:14:05;;;;;;;7.05;1.42;;;;;;;;;;5064643;28;20743;-62
2023/03/28 14:16:32;;;;;;;6.00;1.35;;;;;;;;;;5061642;28;20727;-62
2023/03/28 14:19:00;;;;;;;5.13;1.35;;;;;;;;;;5063384;28;20429;-62
2023/03/28 14:21:26;;;;;;;5.57;1.10;;;;;;;;;;5063657;28;20071;-63
2023/03/28 14:23:59;;;;;;;4.53;1.25;;;;;;;;;;5065891;28;20051;-63
2023/03/28 14:26:28;;;;;;;8.77;1.52;;;;;;;;;;5064671;28;20097;-63